createdAt,value
2018-09-11T08:07:53.789Z,80.40
2018-09-11T08:10:21.121Z,80.18
2018-09-11T08:12:48.466Z,78.61
2018-09-11T08:15:15.861Z,78.78
2018-09-11T08:17:43.326Z,78.65
2018-09-11T08:20:10.618Z,77.87
2018-09-11T08:22:37.895Z,78.21
2018-09-11T08:25:05.581Z,77.28
2018-09-11T08:27:32.885Z,76.95
2018-09-11T08:30:00.488Z,77.32
2018-09-11T08:32:28.642Z,76.85
2018-09-11T08:34:56.129Z,76.77
2018-09-11T08:37:23.564Z,76.97
2018-09-11T08:39:50.957Z,77.10
2018-09-11T08:42:18.397Z,77.22
2018-09-11T08:44:45.688Z,77.57
2018-09-11T08:47:13.047Z,76.65
2018-09-11T08:49:40.550Z,76.09
2018-09-11T08:52:07.928Z,76.21
2018-09-11T08:54:35.805Z,76.67
2018-09-11T08:57:03.109Z,76.20
2018-09-11T08:59:30.633Z,75.19
2018-09-11T09:01:58.083Z,75.41
2018-09-11T09:04:31.258Z,75.23
2018-09-11T09:06:59.084Z,74.84
2018-09-11T09:09:26.661Z,74.22
2018-09-11T09:11:54.058Z,73.74
2018-09-11T09:14:21.528Z,73.76
2018-09-11T09:16:49.184Z,73.79
2018-09-11T09:19:16.620Z,73.64
2018-09-11T09:21:43.957Z,73.27
2018-09-11T09:24:11.348Z,73.38
2018-09-11T09:26:38.673Z,72.87
2018-09-11T09:29:06.025Z,72.23
2018-09-11T09:31:33.372Z,71.57
2018-09-11T09:34:01.418Z,70.73
2018-09-11T09:36:28.752Z,70.10
2018-09-11T09:38:56.108Z,70.40
2018-09-11T09:41:24.237Z,70.54
2018-09-11T09:43:51.730Z,70.20
2018-09-11T09:46:19.904Z,70.03
2018-09-11T09:48:47.334Z,70.06
2018-09-11T09:51:14.765Z,69.92
2018-09-11T09:53:42.106Z,69.19
2018-09-11T09:56:09.417Z,69.27
2018-09-11T09:58:37.558Z,68.61
2018-09-11T10:01:10.575Z,69.34
2018-09-11T10:03:37.889Z,68.84
2018-09-11T10:06:05.220Z,68.51
2018-09-11T10:08:32.946Z,68.87
2018-09-11T10:11:00.427Z,68.35
2018-09-11T10:13:28.589Z,66.48
2018-09-11T10:15:55.893Z,67.11
2018-09-11T10:18:24.238Z,66.52
2018-09-11T10:20:51.626Z,66.69
2018-09-11T10:23:19.028Z,66.14
2018-09-11T10:25:46.478Z,65.82
2018-09-11T10:28:13.922Z,65.41
2018-09-11T10:30:41.518Z,65.87
2018-09-11T10:33:08.903Z,65.64
2018-09-11T10:35:36.276Z,64.73
2018-09-11T10:38:03.882Z,64.04
2018-09-11T10:40:31.576Z,63.14
2018-09-11T10:42:59.124Z,61.63
2018-09-11T10:45:27.271Z,61.39
2018-09-11T10:47:55.767Z,62.19
2018-09-11T10:50:23.063Z,61.94
2018-09-11T10:52:50.457Z,61.62
2018-09-11T10:55:17.796Z,62.21
2018-09-11T10:57:45.353Z,62.88
2018-09-11T11:00:12.855Z,62.24
2018-09-11T11:02:40.554Z,62.90
2018-09-11T11:05:08.164Z,63.60
2018-09-11T11:10:13.523Z,61.88
2018-09-11T11:12:41.043Z,62.77
2018-09-11T11:15:08.547Z,62.72
2018-09-11T11:17:35.933Z,63.28
2018-09-11T11:20:03.203Z,62.35
2018-09-11T11:22:30.799Z,61.48
2018-09-11T11:24:58.173Z,62.15
2018-09-11T11:27:25.551Z,62.25
2018-09-11T11:29:53.663Z,61.81
2018-09-11T11:32:21.270Z,62.70
2018-09-11T11:34:48.573Z,61.71
2018-09-11T11:37:16.117Z,62.01
2018-09-11T11:39:43.421Z,61.50
2018-09-11T11:42:11.068Z,61.94
2018-09-11T11:44:38.470Z,61.65
2018-09-11T11:47:06.083Z,62.26
2018-09-11T11:49:33.542Z,62.29
2018-09-11T11:52:01.139Z,61.81
2018-09-11T11:54:28.477Z,61.84
2018-09-11T11:56:55.814Z,61.79
2018-09-11T11:59:23.287Z,62.00
2018-09-11T12:01:50.873Z,62.08
2018-09-11T12:04:18.245Z,61.86
2018-09-11T12:06:45.643Z,61.75
2018-09-11T12:09:13.063Z,61.62
2018-09-11T12:11:40.598Z,60.78
2018-09-11T12:14:07.997Z,61.06
2018-09-11T12:16:35.348Z,62.36
2018-09-11T12:19:02.731Z,61.86
2018-09-11T12:21:30.219Z,60.06
2018-09-11T12:23:57.642Z,60.45
2018-09-11T12:26:25.683Z,60.66
2018-09-11T12:28:53.582Z,59.47
2018-09-11T12:31:21.122Z,58.76
2018-09-11T12:33:50.533Z,58.39
2018-09-11T12:36:17.841Z,57.08
2018-09-11T12:38:45.340Z,57.18
2018-09-11T12:41:12.675Z,56.12
2018-09-11T12:43:40.223Z,56.61
2018-09-11T12:46:07.966Z,56.30
2018-09-11T12:48:35.393Z,57.35
2018-09-11T12:51:02.632Z,57.80
2018-09-11T12:53:30.089Z,58.01
2018-09-11T12:55:57.541Z,57.49
2018-09-11T12:58:24.991Z,58.60
2018-09-11T13:00:52.414Z,58.74
2018-09-11T13:03:20.374Z,58.21
2018-09-11T13:05:47.799Z,60.71
2018-09-11T13:08:15.126Z,59.28
2018-09-11T13:10:42.523Z,58.64
2018-09-11T13:13:09.880Z,58.14
2018-09-11T13:15:37.965Z,57.14
2018-09-11T13:18:05.320Z,56.89
2018-09-11T13:20:32.736Z,58.15
2018-09-11T13:23:00.260Z,54.61
2018-09-11T13:25:27.804Z,55.27
2018-09-11T13:27:55.191Z,56.59
2018-09-11T13:30:22.643Z,60.20
2018-09-11T13:32:50.033Z,59.46
2018-09-11T13:35:17.315Z,62.26
2018-09-11T13:37:44.678Z,63.00
2018-09-11T13:40:12.159Z,62.69
2018-09-11T13:42:39.637Z,62.37
2018-09-11T13:45:07.086Z,63.20
2018-09-11T13:47:34.618Z,64.30
2018-09-11T13:50:01.966Z,63.55
2018-09-11T13:52:29.356Z,63.85
2018-09-11T13:54:56.682Z,65.07
2018-09-11T13:57:24.109Z,64.38
2018-09-11T13:59:52.276Z,64.92
2018-09-11T14:02:20.000Z,65.45
2018-09-11T14:04:47.366Z,65.39
2018-09-11T14:07:15.142Z,64.95
2018-09-11T14:09:43.081Z,65.25
2018-09-11T14:12:10.521Z,64.73
2018-09-11T14:14:37.864Z,64.94
2018-09-11T14:17:05.388Z,64.61
2018-09-11T14:19:32.795Z,64.72
2018-09-11T14:22:00.234Z,64.32
2018-09-11T14:24:27.820Z,63.89
2018-09-11T14:26:55.695Z,64.20
2018-09-11T14:29:23.153Z,65.16
2018-09-11T14:31:50.638Z,64.27
2018-09-11T14:34:18.728Z,64.11
2018-09-11T14:36:46.272Z,63.87
2018-09-11T14:39:13.995Z,63.81
2018-09-11T14:41:41.377Z,64.13
2018-09-11T14:44:09.014Z,64.00
2018-09-11T14:46:36.763Z,64.92
2018-09-11T14:49:04.648Z,64.38
2018-09-11T14:51:32.278Z,65.89
2018-09-11T14:54:00.101Z,66.31
2018-09-11T14:56:27.625Z,65.86
2018-09-11T14:58:55.918Z,66.29
2018-09-11T15:01:23.848Z,66.57
2018-09-11T15:03:51.455Z,66.82
2018-09-11T15:06:18.993Z,67.21
2018-09-11T15:08:46.915Z,66.87
2018-09-11T15:11:14.673Z,66.81
2018-09-11T15:13:42.414Z,66.59
2018-09-11T15:16:10.094Z,67.34
2018-09-11T15:18:37.810Z,68.18
2018-09-11T15:21:05.295Z,66.89
2018-09-11T15:23:32.779Z,67.77
2018-09-11T15:26:00.353Z,67.35
2018-09-11T15:28:27.782Z,67.96
2018-09-11T15:30:55.306Z,68.12
2018-09-11T15:33:23.046Z,67.30
2018-09-11T15:35:54.689Z,66.66
2018-09-11T15:38:22.570Z,67.37
2018-09-11T15:40:50.444Z,65.81
2018-09-11T15:43:18.203Z,67.61
2018-09-11T15:45:46.423Z,67.09
2018-09-11T15:48:14.579Z,66.13
2018-09-11T15:50:42.440Z,64.33
2018-09-11T15:53:09.877Z,64.46
2018-09-11T15:55:37.519Z,66.31
2018-09-11T15:58:04.882Z,66.82
2018-09-11T16:00:32.283Z,67.83
2018-09-11T16:03:00.476Z,68.15
2018-09-11T16:05:27.899Z,69.96
2018-09-11T16:07:55.760Z,69.35
2018-09-11T16:10:23.324Z,70.47
2018-09-11T16:12:50.810Z,69.97
2018-09-11T16:15:18.171Z,70.66
2018-09-11T16:17:45.693Z,70.72
2018-09-11T16:20:13.461Z,69.59
2018-09-11T16:22:41.250Z,70.40
2018-09-11T16:25:08.643Z,70.63
2018-09-11T16:27:36.143Z,70.43
2018-09-11T16:30:03.830Z,71.17
2018-09-11T16:32:31.246Z,70.19
2018-09-11T16:34:58.705Z,70.58
2018-09-11T16:37:26.054Z,71.57
2018-09-11T16:39:53.492Z,71.28
2018-09-11T16:42:21.004Z,71.76
2018-09-11T16:44:48.409Z,72.54
2018-09-11T16:47:15.860Z,72.34
2018-09-11T16:49:43.593Z,71.70
2018-09-11T16:52:10.981Z,71.97
2018-09-11T16:54:38.329Z,71.55
2018-09-11T16:57:05.669Z,72.45
2018-09-11T16:59:33.906Z,72.83
2018-09-11T17:02:02.130Z,71.96
2018-09-11T17:04:29.624Z,72.09
2018-09-11T17:06:57.082Z,72.93
2018-09-11T17:09:25.095Z,72.12
2018-09-11T17:11:52.704Z,72.43
2018-09-11T17:14:20.151Z,72.10
2018-09-11T17:16:47.564Z,72.10
2018-09-11T17:19:15.161Z,72.13
2018-09-11T17:21:42.609Z,73.88
2018-09-11T17:24:10.478Z,74.30
2018-09-11T17:26:38.450Z,74.01
2018-09-11T17:29:05.800Z,73.70
2018-09-11T17:31:33.202Z,72.81
2018-09-11T17:34:00.541Z,72.44
2018-09-11T17:36:28.123Z,74.56
2018-09-11T17:38:55.810Z,74.96
2018-09-11T17:41:23.303Z,74.23
2018-09-11T17:43:51.287Z,74.20
2018-09-11T17:46:18.818Z,74.29
2018-09-11T17:48:46.376Z,73.95
2018-09-11T17:51:14.251Z,73.82
2018-09-11T17:53:41.700Z,74.41
2018-09-11T17:56:09.280Z,74.45
2018-09-11T17:58:36.852Z,74.25
2018-09-11T18:01:04.467Z,75.50
2018-09-11T18:03:32.014Z,73.52
2018-09-11T18:06:00.577Z,73.91
2018-09-11T18:08:28.319Z,74.46
2018-09-11T18:10:55.964Z,76.37
2018-09-11T18:13:23.741Z,76.46
2018-09-11T18:15:52.429Z,76.46
2018-09-11T18:18:21.511Z,77.76
2018-09-11T18:20:48.876Z,77.43
2018-09-11T18:23:16.727Z,77.22
2018-09-11T18:25:45.137Z,77.23
2018-09-11T18:28:12.573Z,77.96
2018-09-11T18:30:40.170Z,76.62
2018-09-11T18:33:07.736Z,77.93
2018-09-11T18:35:35.064Z,76.32
2018-09-11T18:38:02.584Z,78.12
2018-09-11T18:40:29.882Z,78.67
2018-09-11T18:42:57.441Z,78.59
2018-09-11T18:45:24.822Z,78.06
2018-09-11T18:47:52.512Z,77.78
2018-09-11T18:50:19.887Z,78.28
2018-09-11T18:52:47.483Z,77.82
2018-09-11T18:55:15.430Z,77.82
2018-09-11T18:57:42.821Z,78.32
2018-09-11T19:00:10.452Z,77.61
2018-09-11T19:02:37.800Z,78.22
2018-09-11T19:05:05.213Z,78.35
2018-09-11T19:07:32.674Z,77.81
2018-09-11T19:10:00.031Z,77.38
2018-09-11T19:12:27.637Z,77.66
2018-09-11T19:14:55.593Z,78.70
2018-09-11T19:17:22.874Z,77.91
2018-09-11T19:19:50.253Z,78.14
2018-09-11T19:22:17.720Z,79.42
2018-09-11T19:24:45.194Z,78.76
2018-09-11T19:27:13.289Z,78.99
2018-09-11T19:29:40.710Z,78.46
2018-09-11T19:32:08.035Z,77.95
2018-09-11T19:34:35.378Z,79.01
2018-09-11T19:37:02.775Z,78.08
2018-09-11T19:39:30.180Z,78.17
2018-09-11T19:41:57.513Z,79.07
2018-09-11T19:44:25.720Z,78.48
2018-09-11T19:46:53.168Z,78.74
2018-09-11T19:49:20.487Z,78.27
2018-09-11T19:51:48.526Z,79.23
2018-09-11T19:54:15.905Z,77.28
2018-09-11T19:56:43.373Z,79.18
2018-09-11T19:59:10.855Z,78.30
2018-09-11T20:01:38.163Z,78.54
2018-09-11T20:04:05.506Z,78.58
2018-09-11T20:06:32.769Z,78.70
2018-09-11T20:09:00.276Z,79.35
2018-09-11T20:11:27.617Z,79.38
2018-09-11T20:13:55.045Z,79.07
2018-09-11T20:16:22.409Z,79.04
2018-09-11T20:18:56.151Z,78.07
2018-09-11T20:21:39.508Z,78.59
2018-09-11T20:24:07.791Z,79.10
2018-09-11T20:26:35.180Z,80.24
2018-09-11T20:29:02.568Z,79.46
2018-09-11T20:31:29.993Z,79.45
2018-09-11T20:33:57.583Z,78.76
2018-09-11T20:36:25.191Z,79.76
2018-09-11T20:38:52.506Z,79.23
2018-09-11T20:41:24.063Z,78.65
2018-09-11T20:43:51.715Z,78.78
2018-09-11T20:46:19.068Z,78.93
2018-09-11T20:48:46.585Z,79.46
2018-09-11T20:51:13.893Z,79.85
2018-09-11T20:53:41.275Z,80.27
2018-09-11T20:56:08.651Z,80.69
2018-09-11T20:58:36.638Z,80.48
2018-09-11T21:01:03.982Z,79.80
2018-09-11T21:03:31.330Z,80.27
2018-09-11T21:05:58.863Z,80.38
2018-09-11T21:08:26.414Z,79.85
2018-09-11T21:10:53.756Z,79.12
2018-09-11T21:13:21.159Z,80.11
2018-09-11T21:15:48.578Z,81.33
2018-09-11T21:18:16.024Z,80.28
2018-09-11T21:20:43.389Z,82.06
2018-09-11T21:23:11.054Z,81.71
2018-09-11T21:25:39.463Z,82.05
2018-09-11T21:28:07.633Z,81.33
2018-09-11T21:30:35.000Z,81.50
2018-09-11T21:33:02.408Z,82.34
2018-09-11T21:35:29.851Z,81.30
2018-09-11T21:37:58.101Z,81.23
2018-09-11T21:40:25.530Z,81.96
2018-09-11T21:42:53.160Z,81.75
2018-09-11T21:45:21.606Z,82.20
2018-09-11T21:47:49.002Z,83.19
2018-09-11T21:50:16.672Z,82.39
2018-09-11T21:52:44.009Z,81.88
2018-09-11T21:55:11.441Z,82.12
2018-09-11T21:57:38.767Z,82.94
2018-09-11T22:00:08.688Z,82.12
2018-09-11T22:02:36.539Z,82.79
2018-09-11T22:05:03.967Z,82.35
2018-09-11T22:07:31.523Z,82.62
2018-09-11T22:09:58.984Z,81.38
2018-09-11T22:12:26.249Z,82.81
2018-09-11T22:14:53.625Z,81.11
2018-09-11T22:17:21.547Z,82.05
2018-09-11T22:19:48.905Z,82.48
2018-09-11T22:22:16.355Z,82.11
2018-09-11T22:24:43.826Z,81.69
2018-09-11T22:27:11.133Z,81.55
2018-09-11T22:29:38.513Z,82.10
2018-09-11T22:32:05.928Z,82.28
2018-09-11T22:34:33.345Z,81.53
2018-09-11T22:37:00.634Z,82.00
2018-09-11T22:39:27.930Z,83.11
2018-09-11T22:41:55.352Z,82.49
2018-09-11T22:44:22.755Z,82.64
2018-09-11T22:46:50.123Z,82.47
2018-09-11T22:49:17.449Z,82.03
2018-09-11T22:51:44.738Z,82.22
2018-09-11T22:54:12.279Z,82.00
2018-09-11T22:56:39.970Z,83.02
2018-09-11T22:59:07.382Z,83.27
2018-09-11T23:01:34.797Z,83.57
2018-09-11T23:04:02.269Z,81.63
2018-09-11T23:06:29.633Z,82.46
2018-09-11T23:08:57.137Z,82.92
2018-09-11T23:11:24.416Z,83.61
2018-09-11T23:13:51.774Z,83.22
2018-09-11T23:16:19.073Z,83.26
2018-09-11T23:18:46.477Z,81.58
2018-09-11T23:21:13.858Z,81.62
2018-09-11T23:23:42.973Z,82.23
2018-09-11T23:26:10.247Z,82.84
2018-09-11T23:28:37.589Z,83.59
2018-09-11T23:31:04.856Z,81.51
2018-09-11T23:33:32.115Z,83.73
2018-09-11T23:35:59.411Z,83.11
2018-09-11T23:38:26.701Z,83.67
2018-09-11T23:40:54.002Z,82.90
2018-09-11T23:43:21.396Z,82.93
2018-09-11T23:45:48.755Z,82.81
2018-09-11T23:48:16.157Z,83.08
2018-09-11T23:50:43.503Z,82.14
2018-09-11T23:53:10.854Z,83.15
2018-09-11T23:55:38.087Z,82.37
2018-09-11T23:58:05.385Z,82.80
